createdAt,value
2023-04-02T00:02:21.038Z,93.13
2023-04-02T00:05:19.707Z,93.04
2023-04-02T00:07:53.033Z,93.13
2023-04-02T00:10:32.893Z,93.18
2023-04-02T00:13:09.563Z,93.32
2023-04-02T00:15:37.932Z,93.47
2023-04-02T00:18:06.061Z,93.59
2023-04-02T00:20:40.836Z,93.43
2023-04-02T00:23:12.263Z,93.51
2023-04-02T00:25:43.182Z,93.68
2023-04-02T00:28:15.338Z,93.64
2023-04-02T00:30:55.825Z,93.74
2023-04-02T00:33:26.773Z,93.88
2023-04-02T00:35:55.070Z,93.93
2023-04-02T00:38:31.850Z,94.06
2023-04-02T00:41:01.973Z,93.92
2023-04-02T00:43:31.479Z,93.98
2023-04-02T00:46:05.215Z,94.10
2023-04-02T00:48:31.929Z,94.16
2023-04-02T00:51:08.154Z,94.14
2023-04-02T00:53:37.221Z,94.30
2023-04-02T00:56:12.869Z,94.33
2023-04-02T00:58:40.598Z,94.22
2023-04-02T01:01:17.804Z,94.48
2023-04-02T01:03:59.976Z,94.17
2023-04-02T01:06:31.159Z,94.67
2023-04-02T01:09:17.116Z,94.64
2023-04-02T01:12:02.245Z,94.96
2023-04-02T01:15:06.245Z,94.85
2023-04-02T01:17:38.541Z,95.03
2023-04-02T01:20:07.943Z,95.16
2023-04-02T01:22:51.818Z,95.14
2023-04-02T01:25:26.191Z,95.14
2023-04-02T01:28:05.169Z,95.17
2023-04-02T01:30:35.591Z,95.32
2023-04-02T01:33:03.639Z,95.12
2023-04-02T01:35:36.461Z,95.40
2023-04-02T01:38:21.225Z,95.40
2023-04-02T01:41:03.989Z,95.58
2023-04-02T01:43:46.598Z,95.69
2023-04-02T01:46:32.069Z,95.68
2023-04-02T01:49:04.299Z,95.60
2023-04-02T01:51:36.224Z,95.62
2023-04-02T01:54:05.114Z,95.54
2023-04-02T01:56:32.244Z,95.56
2023-04-02T01:59:00.466Z,95.88
2023-04-02T02:02:02.712Z,96.00
2023-04-02T02:04:31.073Z,96.04
2023-04-02T02:07:00.930Z,96.10
2023-04-02T02:09:30.785Z,96.03
2023-04-02T02:11:58.967Z,95.99
2023-04-02T02:14:27.707Z,96.26
2023-04-02T02:16:56.770Z,96.17
2023-04-02T02:19:26.201Z,96.26
2023-04-02T02:21:56.839Z,96.23
2023-04-02T02:24:28.634Z,96.50
2023-04-02T02:27:16.555Z,96.45
2023-04-02T02:29:47.051Z,96.32
2023-04-02T02:32:16.434Z,96.33
2023-04-02T02:34:49.324Z,96.56
2023-04-02T02:37:23.493Z,96.50
2023-04-02T02:39:56.306Z,96.61
2023-04-02T02:42:36.937Z,96.64
2023-04-02T02:45:11.334Z,96.59
2023-04-02T02:47:40.061Z,96.67
2023-04-02T02:50:12.288Z,96.72
2023-04-02T02:52:39.235Z,96.90
2023-04-02T02:55:14.428Z,96.79
2023-04-02T02:57:47.830Z,96.93
2023-04-02T03:02:41.576Z,97.04
2023-04-02T03:05:09.949Z,97.23
2023-04-02T03:07:37.429Z,97.41
2023-04-02T03:10:16.700Z,97.58
2023-04-02T03:13:15.402Z,97.56
2023-04-02T03:16:11.873Z,97.66
2023-04-02T03:18:53.500Z,97.65
2023-04-02T03:21:39.089Z,97.80
2023-04-02T03:24:11.219Z,97.87
2023-04-02T03:26:46.052Z,98.04
2023-04-02T03:29:25.207Z,98.25
2023-04-02T03:32:00.590Z,98.34
2023-04-02T03:34:34.423Z,98.47
2023-04-02T03:37:22.729Z,98.71
2023-04-02T03:39:56.283Z,98.74
2023-04-02T03:42:26.248Z,99.09
2023-04-02T03:45:17.960Z,99.03
2023-04-02T03:47:56.840Z,99.04
2023-04-02T03:50:36.830Z,99.00
2023-04-02T03:53:05.441Z,99.09
2023-04-02T03:55:36.398Z,99.11
2023-04-02T03:58:18.865Z,99.21
2023-04-02T04:01:04.045Z,99.12
2023-04-02T04:03:39.490Z,99.24
2023-04-02T04:06:10.361Z,99.29
2023-04-02T04:08:50.387Z,99.44
2023-04-02T04:11:22.805Z,99.58
2023-04-02T04:13:58.597Z,99.66
2023-04-02T04:16:46.325Z,99.67
2023-04-02T04:19:29.952Z,99.86
2023-04-02T04:22:18.093Z,99.86
2023-04-02T04:24:47.716Z,99.85
2023-04-02T04:27:54.316Z,99.93
2023-04-02T04:30:24.549Z,99.97
2023-04-02T04:32:58.817Z,100.00
2023-04-02T04:35:31.788Z,100.00
2023-04-02T04:38:22.009Z,100.00
2023-04-02T04:40:54.303Z,100.00
2023-04-02T04:43:28.633Z,100.00
2023-04-02T04:46:13.408Z,100.00
2023-04-02T04:48:58.160Z,100.00
2023-04-02T04:51:34.217Z,100.00
2023-04-02T04:54:01.130Z,100.00
2023-04-02T04:56:30.351Z,100.00
2023-04-02T04:59:07.357Z,100.00
2023-04-02T05:01:39.096Z,100.00
2023-04-02T05:04:14.829Z,100.00
2023-04-02T05:06:49.126Z,100.00
2023-04-02T05:09:22.675Z,100.00
2023-04-02T05:12:15.610Z,100.00
2023-04-02T05:14:54.946Z,100.00
2023-04-02T05:17:30.930Z,100.00
2023-04-02T05:20:16.566Z,100.00
2023-04-02T05:22:51.034Z,100.00
2023-04-02T05:25:27.388Z,100.00
2023-04-02T05:28:06.370Z,100.00
2023-04-02T05:30:38.981Z,100.00
2023-04-02T05:33:25.712Z,100.00
2023-04-02T05:35:58.848Z,100.00
2023-04-02T05:38:32.697Z,100.00
2023-04-02T05:41:27.878Z,100.00
2023-04-02T05:44:03.818Z,100.00
2023-04-02T05:46:35.896Z,100.00
2023-04-02T05:49:06.925Z,100.00
2023-04-02T05:51:43.695Z,100.00
2023-04-02T05:54:37.832Z,100.00
2023-04-02T05:57:11.510Z,100.00
2023-04-02T05:59:43.448Z,100.00
2023-04-02T06:02:25.736Z,100.00
2023-04-02T06:04:58.305Z,100.00
2023-04-02T06:07:46.560Z,100.00
2023-04-02T06:10:19.448Z,100.00
2023-04-02T06:12:46.075Z,100.00
2023-04-02T06:15:17.437Z,100.00
2023-04-02T06:17:51.203Z,100.00
2023-04-02T06:20:21.281Z,100.00
2023-04-02T06:23:06.353Z,100.00
2023-04-02T06:25:52.786Z,100.00
2023-04-02T06:28:27.086Z,100.00
2023-04-02T06:31:01.816Z,100.00
2023-04-02T06:33:28.630Z,100.00
2023-04-02T06:35:56.365Z,100.00
2023-04-02T06:38:27.793Z,100.00
2023-04-02T06:41:05.731Z,100.00
2023-04-02T06:43:47.096Z,100.00
2023-04-02T06:46:25.890Z,100.00
2023-04-02T06:49:02.493Z,100.00
2023-04-02T06:51:32.758Z,100.00
2023-04-02T06:53:59.365Z,100.00
2023-04-02T06:56:32.512Z,100.00
2023-04-02T06:58:59.286Z,100.00
2023-04-02T07:01:29.554Z,100.00
2023-04-02T07:03:57.144Z,100.00
2023-04-02T07:06:23.828Z,100.00
2023-04-02T07:08:50.734Z,100.00
2023-04-02T07:11:21.379Z,100.00
2023-04-02T07:13:49.360Z,100.00
2023-04-02T07:16:28.063Z,100.00
2023-04-02T07:18:55.959Z,100.00
2023-04-02T07:21:22.699Z,100.00
2023-04-02T07:23:49.372Z,100.00
2023-04-02T07:26:20.305Z,100.00
2023-04-02T07:28:46.972Z,100.00
2023-04-02T07:31:17.871Z,100.00
2023-04-02T07:33:45.147Z,100.00
2023-04-02T07:36:19.081Z,100.00
2023-04-02T07:38:46.392Z,100.00
2023-04-02T07:41:14.015Z,100.00
2023-04-02T07:43:41.807Z,100.00
2023-04-02T07:46:10.054Z,100.00
2023-04-02T07:48:36.922Z,100.00
2023-04-02T07:51:03.767Z,100.00
2023-04-02T07:53:35.644Z,100.00
2023-04-02T07:56:04.505Z,100.00
2023-04-02T07:58:32.577Z,100.00
2023-04-02T08:01:01.801Z,100.00
2023-04-02T08:03:29.116Z,100.00
2023-04-02T08:05:58.275Z,100.00
2023-04-02T08:08:26.085Z,100.00
2023-04-02T08:10:52.748Z,100.00
2023-04-02T08:13:19.415Z,100.00
2023-04-02T08:15:46.186Z,100.00
2023-04-02T08:18:12.813Z,100.00
2023-04-02T08:20:39.626Z,100.00
2023-04-02T08:23:15.396Z,100.00
2023-04-02T08:25:42.188Z,100.00
2023-04-02T08:28:08.871Z,100.00
2023-04-02T08:30:35.750Z,100.00
2023-04-02T08:33:02.892Z,100.00
2023-04-02T08:35:29.988Z,100.00
2023-04-02T08:37:56.717Z,100.00
2023-04-02T08:40:36.479Z,100.00
2023-04-02T08:43:40.982Z,100.00
2023-04-02T08:46:38.520Z,100.00
2023-04-02T08:49:13.994Z,100.00
2023-04-02T08:51:41.892Z,100.00
2023-04-02T08:54:23.715Z,100.00
2023-04-02T08:57:00.868Z,100.00
2023-04-02T08:59:27.483Z,100.00
2023-04-02T09:02:03.211Z,100.00
2023-04-02T09:04:31.868Z,100.00
2023-04-02T09:07:00.795Z,100.00
2023-04-02T09:09:28.159Z,100.00
2023-04-02T09:12:04.061Z,100.00
2023-04-02T09:14:53.007Z,100.00
2023-04-02T09:17:22.183Z,100.00
2023-04-02T09:19:55.542Z,100.00
2023-04-02T09:22:25.350Z,100.00
2023-04-02T09:24:54.131Z,100.00
2023-04-02T09:27:23.949Z,100.00
2023-04-02T09:30:00.973Z,100.00
2023-04-02T09:32:33.697Z,100.00
2023-04-02T09:35:29.783Z,96.68
2023-04-02T09:38:19.975Z,94.30
2023-04-02T09:40:57.040Z,93.14
2023-04-02T09:43:29.884Z,93.14
2023-04-02T09:45:56.509Z,91.72
2023-04-02T09:48:34.202Z,91.24
2023-04-02T09:51:22.105Z,91.84
2023-04-02T09:54:02.576Z,91.74
2023-04-02T09:56:34.948Z,93.18
2023-04-02T09:59:16.647Z,89.87
2023-04-02T10:01:48.012Z,89.33
2023-04-02T10:04:44.664Z,90.49
2023-04-02T10:07:34.800Z,90.25
2023-04-02T10:10:32.606Z,84.68
2023-04-02T10:13:27.202Z,82.33
2023-04-02T10:16:03.368Z,82.80
2023-04-02T10:18:35.688Z,82.93
2023-04-02T10:21:04.584Z,83.35
2023-04-02T10:23:31.922Z,84.11
2023-04-02T10:26:09.690Z,84.33
2023-04-02T10:29:07.240Z,85.04
2023-04-02T10:31:47.256Z,85.15
2023-04-02T10:34:24.945Z,84.79
2023-04-02T10:37:39.685Z,84.82
2023-04-02T10:40:12.394Z,84.64
2023-04-02T10:42:44.871Z,84.59
2023-04-02T10:45:17.591Z,84.71
2023-04-02T10:47:50.433Z,84.92
2023-04-02T10:50:36.023Z,84.89
2023-04-02T10:53:13.820Z,84.50
2023-04-02T10:56:04.875Z,84.57
2023-04-02T10:58:35.129Z,84.65
2023-04-02T11:01:08.108Z,84.30
2023-04-02T11:03:41.630Z,84.29
2023-04-02T11:06:21.311Z,84.30
2023-04-02T11:08:50.840Z,84.15
2023-04-02T11:11:23.675Z,83.90
2023-04-02T11:14:21.020Z,83.87
2023-04-02T11:16:53.219Z,83.71
2023-04-02T11:19:19.708Z,83.66
2023-04-02T11:21:58.817Z,83.79
2023-04-02T11:24:30.337Z,83.85
2023-04-02T11:27:12.243Z,84.02
2023-04-02T11:29:47.014Z,84.24
2023-04-02T11:32:25.229Z,84.28
2023-04-02T11:35:05.778Z,84.19
2023-04-02T11:37:44.821Z,84.17
2023-04-02T11:40:11.765Z,83.79
2023-04-02T11:42:40.547Z,83.72
2023-04-02T11:45:28.562Z,83.55
2023-04-02T11:48:01.320Z,83.21
2023-04-02T11:50:34.454Z,83.02
2023-04-02T11:53:06.741Z,83.03
2023-04-02T11:55:35.144Z,82.70
2023-04-02T11:58:23.935Z,82.55
2023-04-02T12:01:05.521Z,82.84
2023-04-02T12:03:35.110Z,82.81
2023-04-02T12:06:13.433Z,82.50
2023-04-02T12:08:58.485Z,82.71
2023-04-02T12:11:34.812Z,82.51
2023-04-02T12:14:07.629Z,82.80
2023-04-02T12:16:35.533Z,82.37
2023-04-02T12:19:02.620Z,82.22
2023-04-02T12:21:30.048Z,82.03
2023-04-02T12:23:59.494Z,81.97
2023-04-02T12:26:38.512Z,81.68
2023-04-02T12:29:39.082Z,82.02
2023-04-02T12:32:19.394Z,82.08
2023-04-02T12:34:52.840Z,81.49
2023-04-02T12:37:25.265Z,81.61
2023-04-02T12:40:16.122Z,81.13
2023-04-02T12:42:42.760Z,81.09
2023-04-02T12:45:26.172Z,80.89
2023-04-02T12:47:55.091Z,80.71
2023-04-02T12:50:22.898Z,80.32
2023-04-02T12:52:55.124Z,80.10
2023-04-02T12:55:26.897Z,79.38
2023-04-02T12:58:00.266Z,79.94
2023-04-02T13:00:30.392Z,79.35
2023-04-02T13:03:17.964Z,79.17
2023-04-02T13:05:50.160Z,79.19
2023-04-02T13:08:28.891Z,79.19
2023-04-02T13:11:01.230Z,79.06
2023-04-02T13:13:32.951Z,78.10
2023-04-02T13:16:24.498Z,77.75
2023-04-02T13:18:51.284Z,77.17
2023-04-02T13:21:21.173Z,77.17
2023-04-02T13:23:48.045Z,77.31
2023-04-02T13:26:22.180Z,77.60
2023-04-02T13:28:57.528Z,77.60
2023-04-02T13:31:24.240Z,77.12
2023-04-02T13:33:51.320Z,76.99
2023-04-02T13:36:18.316Z,75.94
2023-04-02T13:38:44.989Z,75.78
2023-04-02T13:41:25.292Z,75.63
2023-04-02T13:43:53.697Z,75.30
2023-04-02T13:46:26.551Z,74.76
2023-04-02T13:48:54.980Z,74.99
2023-04-02T13:51:46.483Z,75.10
2023-04-02T13:54:31.474Z,74.65
2023-04-02T13:56:58.297Z,74.45
2023-04-02T13:59:26.133Z,74.73
2023-04-02T14:01:57.865Z,74.86
2023-04-02T14:04:29.273Z,74.52
2023-04-02T14:07:27.374Z,74.54
2023-04-02T14:10:01.475Z,74.16
2023-04-02T14:12:34.622Z,73.99
2023-04-02T14:15:15.206Z,73.96
2023-04-02T14:18:12.834Z,74.51
2023-04-02T14:21:00.985Z,74.42
2023-04-02T14:23:44.832Z,74.44
2023-04-02T14:26:30.319Z,74.08
2023-04-02T14:29:07.395Z,73.73
2023-04-02T14:31:41.124Z,73.54
2023-04-02T14:34:41.846Z,73.83
2023-04-02T14:37:36.858Z,73.58
2023-04-02T14:40:12.118Z,72.94
2023-04-02T14:43:02.047Z,72.39
2023-04-02T14:45:53.929Z,71.95
2023-04-02T14:48:30.483Z,71.58
2023-04-02T14:51:07.664Z,71.82
2023-04-02T14:53:52.916Z,71.44
2023-04-02T14:56:21.949Z,71.63
2023-04-02T14:58:55.655Z,71.65
2023-04-02T15:01:31.640Z,71.38
2023-04-02T15:04:06.173Z,71.18
2023-04-02T15:06:41.795Z,70.90
2023-04-02T15:09:20.381Z,70.20
2023-04-02T15:11:53.959Z,70.51
2023-04-02T15:14:41.353Z,70.35
2023-04-02T15:17:11.806Z,70.21
2023-04-02T15:19:38.496Z,69.61
2023-04-02T15:22:08.731Z,69.39
2023-04-02T15:24:50.665Z,69.55
2023-04-02T15:27:35.603Z,69.03
2023-04-02T15:30:23.632Z,68.28
2023-04-02T15:32:51.188Z,68.04
2023-04-02T15:35:32.811Z,67.32
2023-04-02T15:38:13.109Z,67.30
2023-04-02T15:41:07.209Z,66.78
2023-04-02T15:44:04.413Z,67.23
2023-04-02T15:46:50.713Z,67.14
2023-04-02T15:49:54.411Z,67.09
2023-04-02T15:52:59.421Z,67.50
2023-04-02T15:55:48.003Z,67.86
2023-04-02T15:58:35.594Z,67.81
2023-04-02T16:01:24.626Z,67.54
2023-04-02T16:04:20.604Z,66.61
2023-04-02T16:06:59.318Z,66.85
2023-04-02T16:09:38.963Z,67.09
2023-04-02T16:12:14.929Z,66.72
2023-04-02T16:14:44.952Z,66.71
2023-04-02T16:17:25.316Z,66.54
2023-04-02T16:20:23.878Z,67.14
2023-04-02T16:23:01.077Z,67.41
2023-04-02T16:25:57.393Z,67.19
2023-04-02T16:28:57.000Z,67.19
2023-04-02T16:31:45.218Z,66.87
2023-04-02T16:34:42.318Z,66.78
2023-04-02T16:37:49.697Z,66.93
2023-04-02T16:40:35.295Z,66.86
2023-04-02T16:43:11.382Z,66.75
2023-04-02T16:45:48.325Z,66.71
2023-04-02T16:48:47.653Z,66.46
2023-04-02T16:51:37.276Z,66.27
2023-04-02T16:54:26.875Z,66.53
2023-04-02T16:57:03.828Z,66.43
2023-04-02T17:00:10.571Z,66.41
2023-04-02T17:03:01.769Z,66.45
2023-04-02T17:05:32.927Z,66.63
2023-04-02T17:08:17.962Z,66.83
2023-04-02T17:10:50.448Z,67.29
2023-04-02T17:13:32.568Z,67.32
2023-04-02T17:16:06.501Z,67.50
2023-04-02T17:18:34.857Z,67.58
2023-04-02T17:21:08.968Z,67.77
2023-04-02T17:24:05.061Z,68.26
2023-04-02T17:26:37.319Z,68.30
2023-04-02T17:29:09.603Z,68.55
2023-04-02T17:31:38.031Z,68.57
2023-04-02T17:34:17.005Z,69.10
2023-04-02T17:36:58.642Z,69.08
2023-04-02T17:39:49.182Z,69.09
2023-04-02T17:42:47.091Z,69.50
2023-04-02T17:45:30.133Z,69.33
2023-04-02T17:48:35.639Z,69.76
2023-04-02T17:51:41.984Z,70.01
2023-04-02T17:54:31.116Z,70.29
2023-04-02T17:57:00.737Z,70.25
2023-04-02T17:59:53.806Z,70.71
2023-04-02T18:02:23.599Z,71.12
2023-04-02T18:04:59.300Z,71.38
2023-04-02T18:07:40.984Z,71.71
2023-04-02T18:10:25.840Z,72.01
2023-04-02T18:13:02.772Z,72.37
2023-04-02T18:15:38.019Z,72.19
2023-04-02T18:18:11.500Z,72.44
2023-04-02T18:21:03.191Z,72.99
2023-04-02T18:23:56.565Z,73.05
2023-04-02T18:26:32.697Z,73.11
2023-04-02T18:29:35.792Z,73.40
2023-04-02T18:32:39.189Z,73.37
2023-04-02T18:35:31.648Z,73.50
2023-04-02T18:38:04.647Z,73.66
2023-04-02T18:41:00.010Z,73.57
2023-04-02T18:43:36.349Z,73.79
2023-04-02T18:46:08.828Z,74.07
2023-04-02T18:48:42.678Z,74.19
2023-04-02T18:51:16.581Z,74.59
2023-04-02T18:53:43.729Z,74.82
2023-04-02T18:56:15.778Z,75.12
2023-04-02T18:58:53.182Z,75.36
2023-04-02T19:01:30.695Z,75.49
2023-04-02T19:04:13.865Z,75.65
2023-04-02T19:06:47.730Z,75.73
2023-04-02T19:09:34.077Z,75.84
2023-04-02T19:12:01.418Z,75.97
2023-04-02T19:14:29.967Z,76.16
2023-04-02T19:17:14.770Z,76.44
2023-04-02T19:19:59.480Z,76.61
2023-04-02T19:23:00.232Z,76.72
2023-04-02T19:25:46.102Z,76.39
2023-04-02T19:28:22.251Z,76.63
2023-04-02T19:31:11.879Z,76.96
2023-04-02T19:34:03.234Z,76.90
2023-04-02T19:36:45.884Z,76.97
2023-04-02T19:39:46.586Z,77.14
2023-04-02T19:42:16.333Z,77.24
2023-04-02T19:44:48.324Z,77.44
2023-04-02T19:47:17.425Z,77.58
2023-04-02T19:49:44.578Z,77.73
2023-04-02T19:52:11.276Z,77.82
2023-04-02T19:54:38.501Z,78.14
2023-04-02T19:57:05.947Z,78.12
2023-04-02T19:59:32.678Z,78.21
2023-04-02T20:01:59.456Z,78.46
2023-04-02T20:04:28.281Z,78.44
2023-04-02T20:06:55.546Z,78.72
2023-04-02T20:09:22.435Z,78.57
2023-04-02T20:11:49.666Z,78.81
2023-04-02T20:14:16.650Z,78.93
2023-04-02T20:16:44.640Z,79.04
2023-04-02T20:19:12.638Z,79.33
2023-04-02T20:21:39.396Z,79.18
2023-04-02T20:24:07.591Z,79.26
2023-04-02T20:26:35.313Z,79.65
2023-04-02T20:29:02.135Z,79.65
2023-04-02T20:31:31.050Z,79.58
2023-04-02T20:33:59.178Z,79.74
2023-04-02T20:36:29.168Z,79.94
2023-04-02T20:38:57.475Z,79.98
2023-04-02T20:41:24.390Z,80.25
2023-04-02T20:43:51.410Z,80.35
2023-04-02T20:46:18.314Z,80.39
2023-04-02T20:48:45.313Z,80.27
2023-04-02T20:51:15.528Z,80.54
2023-04-02T20:53:42.470Z,80.48
2023-04-02T20:56:17.067Z,80.80
2023-04-02T20:58:44.557Z,80.68
2023-04-02T21:01:15.642Z,80.70
2023-04-02T21:03:42.662Z,80.94
2023-04-02T21:06:17.724Z,80.97
2023-04-02T21:08:45.389Z,81.26
2023-04-02T21:11:12.636Z,81.08
2023-04-02T21:13:42.459Z,81.23
2023-04-02T21:16:29.729Z,81.55
2023-04-02T21:18:58.603Z,81.38
2023-04-02T21:21:25.918Z,81.33
2023-04-02T21:24:00.582Z,81.54
2023-04-02T21:26:29.521Z,81.56
2023-04-02T21:28:56.180Z,81.68
2023-04-02T21:31:25.993Z,81.88
2023-04-02T21:33:55.706Z,81.95
2023-04-02T21:36:31.363Z,81.91
2023-04-02T21:39:09.262Z,81.94
2023-04-02T21:41:41.286Z,82.11
2023-04-02T21:44:10.039Z,82.29
2023-04-02T21:46:38.913Z,82.37
2023-04-02T21:49:08.143Z,82.30
2023-04-02T21:51:37.084Z,82.38
2023-04-02T21:54:04.372Z,82.51
2023-04-02T21:56:33.343Z,82.56
2023-04-02T21:59:02.076Z,82.73
2023-04-02T22:01:40.929Z,82.99
2023-04-02T22:04:09.453Z,82.94
2023-04-02T22:06:39.646Z,82.92
2023-04-02T22:09:10.509Z,83.24
2023-04-02T22:11:40.796Z,83.43
2023-04-02T22:14:07.741Z,83.03
2023-04-02T22:16:36.525Z,83.40
2023-04-02T22:19:05.646Z,83.54
2023-04-02T22:21:32.733Z,83.61
2023-04-02T22:24:01.736Z,83.79
2023-04-02T22:26:29.546Z,83.74
2023-04-02T22:28:56.301Z,83.82
2023-04-02T22:31:27.873Z,83.57
2023-04-02T22:33:55.745Z,84.01
2023-04-02T22:36:23.468Z,83.98
2023-04-02T22:38:51.912Z,84.25
2023-04-02T22:41:22.505Z,84.23
2023-04-02T22:43:49.546Z,84.26
2023-04-02T22:46:18.257Z,84.44
2023-04-02T22:48:46.521Z,84.47
2023-04-02T22:51:15.507Z,84.77
2023-04-02T22:53:43.151Z,84.78
2023-04-02T22:56:12.871Z,84.83
2023-04-02T22:58:40.183Z,84.64
2023-04-02T23:01:15.949Z,85.03
2023-04-02T23:03:43.088Z,85.12
2023-04-02T23:06:12.048Z,84.93
2023-04-02T23:08:39.600Z,85.36
2023-04-02T23:11:09.702Z,85.29
2023-04-02T23:13:37.305Z,85.24
2023-04-02T23:16:06.635Z,85.55
2023-04-02T23:18:35.353Z,85.53
2023-04-02T23:21:02.767Z,85.58
2023-04-02T23:23:29.514Z,85.72
2023-04-02T23:26:07.428Z,85.86
2023-04-02T23:28:35.729Z,85.91
2023-04-02T23:31:04.388Z,86.21
2023-04-02T23:33:31.204Z,86.29
2023-04-02T23:35:58.595Z,86.34
2023-04-02T23:38:26.548Z,86.39
2023-04-02T23:40:53.946Z,86.58
2023-04-02T23:43:20.742Z,86.51
2023-04-02T23:45:51.154Z,86.62
2023-04-02T23:48:17.844Z,86.78
2023-04-02T23:50:45.591Z,86.83
2023-04-02T23:53:13.288Z,87.00
2023-04-02T23:55:40.489Z,87.00
2023-04-02T23:58:07.350Z,87.04
